Search flights

Saniat R'Mel Airport, Tetouan (GMTN)

Meteorología aeropuerto y NOTAMs

METAR for:GMTN (Tetouan/Sania Ramel Arpt, TA, MA)
Text:GMTN 260800Z VRB01KT 9999 FEW016 23/19 Q1016 NOSIG
Conditions at:0800 UTC 26 May 2024
Temperature: 23.0°C ( 73°F)
Dewpoint: 19.0°C ( 66°F) [RH = 78%]
Pressure (altimeter):30.00 inches Hg (1016.0 mb)
Winds:variable direction winds at 1 MPH (1 knots; 0.5 m/s)
Visibility:6 or more sm (10+ km)
Ceiling:at least 12,000 feet AGL
Clouds:few clouds at 1600 feet AGL

Salidas y llegadas actuales

En este momento no hay salidas ni llegadas a este aeropuerto

Historial de salidas (últimos 12 meses)

Nº vuelo. Destino Aeronave Fecha
VFRFNX-MA/ALG-02 GMTA Carenado C... 2024-05-15 06:38:11

Historial de llegadas (últimos 12 meses)

Nº vuelo. Origen Aeronave Fecha
VFRFNX-MA/ALG-01 GMTT Carenado C... 2024-05-15 06:16:35

Información de pista (Elevación del aeropuerto: 16ft)

Pista 06 Longitud 7,554ft Anchura 147ft Elevación 10ft Superficie Asphalt Rumbo 55
Pista 24 Longitud 7,554ft Anchura 147ft Elevación 10ft Superficie Asphalt Rumbo 235

Frecuencias del aeropuerto

Tipo ATIS Frecuencia 124.800 Mhz
Tipo Tower Frecuencia 119.000 Mhz
Tipo Tower Frecuencia 131.250 Mhz

Radioayudas del aeropuerto

Tipo VOR-DME Identif. TTN Frecuencia 117300 Khz
Tipo NDB Identif. TUN Frecuencia 388 Khz